Archival Weather

Chicago O'Hare International

Chicago, Illinois (KORD)

Report from: Wednesday, January 25, 2023 7:29 AM CST
Current time: Monday, February 6, 2023 1:09 AM CST

Current weather
Weather history
Weather forecast

Present weatherSnow, fog
Temperature0.0°C (32.0°F)
Wind chill-4.0°C (24.8°F)
Dew point-1.1°C (30.0°F)
Winds 7 kts (3.6 m/s, 8.1 mph) Northeast (40°)
Visibility0.5 mi. (0.8 km)
Clouds Ceiling: Overcast 400 ft. (122 m)
Altimeter29.78 in.Hg (1008 mB)
Precipitiation0.01 in. (0 mm)
Relative humidity92 %
Density altitude-1,584 ft. (-483 m)
Remarks Automated weather observing station with precipitation discriminator
Flight conditions Low Instrument Meteorological Conditions
Raw dataKORD 251329Z 04007KT 1/2SM R10L/6000VP6000FT SN FG OVC004 00/M01 A2978 RMK AO2 P0001 T00001011
An error has occurred. This application may no longer respond until reloaded. Reload 🗙